createdAt,value
2023-02-11T00:06:01.501Z,34.10
2023-02-11T00:11:04.990Z,41.50
2023-02-11T00:16:10.842Z,58.30
2023-02-11T00:21:18.133Z,41.60
2023-02-11T00:26:27.419Z,41.20
2023-02-11T00:31:31.120Z,38.80
2023-02-11T00:36:34.235Z,36.10
2023-02-11T00:41:37.461Z,43.70
2023-02-11T00:46:40.702Z,29.00
2023-02-11T00:56:46.575Z,36.80
2023-02-11T01:01:49.648Z,37.20
2023-02-11T01:11:56.386Z,47.20
2023-02-11T01:16:59.702Z,42.10
2023-02-11T01:22:03.429Z,33.20
2023-02-11T01:27:06.743Z,49.30
2023-02-11T01:32:09.897Z,42.30
2023-02-11T01:37:13.967Z,42.00
2023-02-11T01:42:21.061Z,45.70
2023-02-11T01:47:24.069Z,46.20
2023-02-11T01:52:36.181Z,32.40
2023-02-11T01:57:42.335Z,45.90
2023-02-11T02:03:01.027Z,48.70
2023-02-11T02:08:29.740Z,49.60
2023-02-11T02:13:34.793Z,49.50
2023-02-11T02:19:02.309Z,46.40
2023-02-11T02:24:39.766Z,46.30
2023-02-11T02:30:01.308Z,48.50
2023-02-11T02:35:26.027Z,47.00
2023-02-11T02:40:51.139Z,45.80
2023-02-11T02:45:54.460Z,49.20
2023-02-11T02:51:40.676Z,47.20
2023-02-11T02:57:12.860Z,52.80
2023-02-11T03:02:59.381Z,45.10
2023-02-11T03:08:27.270Z,28.10
2023-02-11T03:13:34.832Z,44.20
2023-02-11T03:18:41.976Z,41.70
2023-02-11T03:23:53.279Z,46.10
2023-02-11T03:29:10.409Z,45.30
2023-02-11T03:34:22.833Z,35.20
2023-02-11T03:39:32.303Z,39.30
2023-02-11T03:44:40.311Z,27.00
2023-02-11T03:49:45.639Z,42.90
2023-02-11T03:54:54.887Z,35.80
2023-02-11T03:59:59.861Z,33.70
2023-02-11T04:05:04.554Z,39.40
2023-02-11T04:10:08.840Z,34.10
2023-02-11T04:15:12.047Z,38.40
2023-02-11T04:25:19.907Z,37.00
2023-02-11T04:30:23.317Z,40.00
2023-02-11T04:35:26.622Z,48.70
2023-02-11T04:40:29.859Z,38.20
2023-02-11T04:45:33.755Z,44.00
2023-02-11T04:50:36.865Z,42.00
2023-02-11T04:55:39.965Z,43.40
2023-02-11T05:05:46.382Z,38.90
2023-02-11T05:10:49.687Z,31.70
2023-02-11T05:15:53.746Z,43.50
2023-02-11T05:20:57.026Z,22.60
2023-02-11T05:26:00.338Z,37.60
2023-02-11T05:31:04.535Z,37.40
2023-02-11T05:36:10.447Z,41.30
2023-02-11T05:41:13.852Z,39.90
2023-02-11T05:46:18.288Z,39.80
2023-02-11T05:51:21.498Z,46.80
2023-02-11T05:56:24.701Z,50.20
2023-02-11T06:01:28.237Z,48.00
2023-02-11T06:06:31.540Z,40.40
2023-02-11T06:11:34.840Z,43.80
2023-02-11T06:16:38.772Z,51.70
2023-02-11T06:21:44.284Z,51.70
2023-02-11T06:26:47.737Z,57.00
2023-02-11T06:31:51.191Z,60.60
2023-02-11T06:36:54.460Z,51.60
2023-02-11T06:47:00.772Z,52.90
2023-02-11T06:52:04.289Z,55.20
2023-02-11T07:02:11.194Z,55.30
2023-02-11T07:07:14.427Z,55.30
2023-02-11T07:17:20.759Z,54.30
2023-02-11T07:22:23.949Z,59.30
2023-02-11T07:27:27.154Z,46.50
2023-02-11T07:32:30.673Z,65.80
2023-02-11T07:37:35.375Z,62.10
2023-02-11T07:42:40.565Z,55.70
2023-02-11T07:47:43.773Z,49.80
2023-02-11T07:52:46.878Z,63.30
2023-02-11T07:57:51.108Z,55.60
2023-02-11T08:02:54.113Z,74.00
2023-02-11T08:07:57.117Z,69.90
2023-02-11T08:13:00.219Z,58.00
2023-02-11T08:23:08.169Z,30.50
2023-02-11T08:28:11.460Z,55.00
2023-02-11T08:33:14.997Z,42.30
2023-02-11T08:43:20.996Z,42.30
2023-02-11T08:48:24.206Z,42.10
2023-02-11T08:53:27.417Z,46.60
2023-02-11T08:58:30.723Z,46.00
2023-02-11T09:03:33.836Z,40.80
2023-02-11T09:08:45.286Z,38.70
2023-02-11T09:13:50.504Z,40.40
2023-02-11T09:18:57.698Z,38.30
2023-02-11T09:24:00.800Z,37.50
2023-02-11T09:29:05.374Z,37.90
2023-02-11T09:34:09.155Z,40.70
2023-02-11T09:39:17.199Z,42.30
2023-02-11T09:45:20.598Z,50.50
2023-02-11T11:06:53.773Z,24.80
2023-02-11T11:11:58.109Z,22.10
2023-02-11T11:17:01.430Z,21.50
2023-02-11T11:27:19.851Z,16.70
2023-02-11T11:32:28.318Z,22.10
2023-02-11T11:37:35.445Z,16.90
2023-02-11T11:42:40.464Z,16.00
2023-02-11T11:47:52.405Z,13.60
2023-02-11T11:53:19.675Z,18.40
2023-02-11T11:58:24.013Z,20.50
2023-02-11T13:07:40.328Z,10.70
2023-02-11T13:13:07.391Z,11.20
2023-02-11T13:18:49.717Z,19.80
2023-02-11T13:24:03.165Z,26.70
2023-02-11T13:34:43.636Z,18.10
2023-02-11T13:40:34.092Z,15.60
2023-02-11T13:45:43.612Z,14.60
2023-02-11T13:50:51.647Z,20.90
2023-02-11T13:56:09.418Z,11.10
2023-02-11T14:02:07.577Z,51.60
2023-02-11T14:07:50.357Z,538.00
2023-02-11T14:13:30.629Z,58.20
2023-02-11T14:18:58.217Z,20.80
2023-02-11T14:24:13.179Z,24.00
2023-02-11T14:29:24.570Z,19.40
2023-02-11T14:34:55.042Z,541.80
2023-02-11T14:40:11.721Z,1478.70
2023-02-11T14:45:29.370Z,1999.90
2023-02-11T14:50:40.507Z,990.30
2023-02-11T14:55:48.619Z,438.20
2023-02-11T15:01:28.230Z,293.90
2023-02-11T15:06:37.568Z,147.00
2023-02-11T15:11:45.247Z,64.30
2023-02-11T15:16:49.186Z,41.00
2023-02-11T15:21:53.725Z,37.70
2023-02-11T15:27:13.219Z,45.90
2023-02-11T15:32:22.075Z,34.20
2023-02-11T15:37:29.892Z,53.70
2023-02-11T15:42:47.222Z,41.50
2023-02-11T15:48:06.278Z,40.70
2023-02-11T15:53:41.225Z,18.30
2023-02-11T15:58:48.219Z,48.90
2023-02-11T16:03:51.512Z,34.70
2023-02-11T16:09:07.050Z,37.00
2023-02-11T16:14:37.588Z,39.70
2023-02-11T16:19:49.504Z,37.20
2023-02-11T16:24:56.123Z,29.60
2023-02-11T16:29:59.511Z,30.80
2023-02-11T16:35:13.980Z,23.20
2023-02-11T16:40:17.880Z,24.40
2023-02-11T16:45:22.920Z,24.40
2023-02-11T16:50:26.830Z,30.00
2023-02-11T16:55:30.393Z,32.20
2023-02-11T17:00:33.757Z,31.60
2023-02-11T17:05:53.161Z,32.30
2023-02-11T17:10:59.382Z,34.10
2023-02-11T17:16:03.138Z,16.90
2023-02-11T17:21:08.037Z,19.30
2023-02-11T17:26:12.903Z,26.00
2023-02-11T17:31:16.708Z,24.00
2023-02-11T17:36:20.118Z,28.30
2023-02-11T17:41:23.526Z,18.00
2023-02-11T17:51:35.866Z,10.60
2023-02-11T17:56:40.677Z,10.70
2023-02-11T18:01:52.951Z,14.50
2023-02-11T18:06:57.905Z,6.20
2023-02-11T18:12:01.618Z,5.50
2023-02-11T18:17:05.233Z,11.30
2023-02-11T18:22:09.986Z,5.30
2023-02-11T18:27:13.602Z,18.00
2023-02-11T18:32:17.014Z,5.50
2023-02-11T18:37:20.738Z,8.40
2023-02-11T18:42:24.252Z,7.20
2023-02-11T18:47:27.765Z,7.50
2023-02-11T18:52:32.983Z,28.80
2023-02-11T18:57:36.234Z,14.70
2023-02-11T19:07:43.772Z,14.70
2023-02-11T19:12:47.186Z,12.10
2023-02-11T19:17:52.027Z,14.00
2023-02-11T19:22:55.547Z,7.00
2023-02-11T19:27:58.663Z,16.00
2023-02-11T19:43:09.298Z,23.90
2023-02-11T19:48:14.817Z,16.40
2023-02-11T19:53:17.944Z,27.70
2023-02-11T19:58:21.454Z,13.20
2023-02-11T20:03:25.311Z,26.30
2023-02-11T20:08:28.721Z,32.10
2023-02-11T20:18:36.646Z,8.90
2023-02-11T20:23:40.906Z,9.10
2023-02-11T20:28:45.440Z,44.20
2023-02-11T20:33:49.506Z,30.90
2023-02-11T20:38:54.419Z,28.70
2023-02-11T20:44:00.271Z,13.20
2023-02-11T20:49:03.597Z,7.70
2023-02-11T20:59:14.077Z,8.90
2023-02-11T21:04:20.666Z,6.80
2023-02-11T21:09:26.774Z,5.10
2023-02-11T21:14:31.504Z,84.30
2023-02-11T21:19:34.626Z,344.20
2023-02-11T21:24:38.042Z,221.30
2023-02-11T21:29:53.526Z,147.30
2023-02-11T21:34:59.502Z,169.30
2023-02-11T21:40:05.283Z,106.80
2023-02-11T21:45:10.181Z,50.40
2023-02-11T21:50:14.363Z,43.80
2023-02-11T21:55:17.777Z,75.30
2023-02-11T22:00:21.188Z,73.00
2023-02-11T22:05:24.573Z,16.60
2023-02-11T22:15:31.582Z,7.80
2023-02-11T22:20:34.737Z,8.80
2023-02-11T22:30:41.900Z,7.10
2023-02-11T22:35:46.000Z,5.90
2023-02-11T22:40:49.197Z,19.10
2023-02-11T22:45:52.692Z,78.40
2023-02-11T22:50:56.430Z,46.10
2023-02-11T23:01:10.527Z,5.80
2023-02-11T23:11:29.451Z,11.10
2023-02-11T23:16:34.441Z,28.50
2023-02-11T23:21:39.448Z,65.40
2023-02-11T23:26:44.597Z,27.90
2023-02-11T23:31:50.010Z,11.10
2023-02-11T23:36:53.783Z,10.70
2023-02-11T23:41:59.241Z,21.30
2023-02-11T23:47:02.353Z,17.80
2023-02-11T23:57:08.702Z,170.00
